Página principal
METAR-TAF:

METAR-TAF

Aeroportos :

Novosibirsk, Rússia

latitude: 55-01N, longitude: 082-38E, altura: 111 m

Observação actual do tempo

O boletim foi feito há 26 minutos, às 17:00 UTC
Vento 4 kt de sul
Temperatura 18°C
Humidade 77%
Pressão 1013 hPa
Visibilidade 10 km ou mais
sem nuvens abaixo de 1500 metros e sem cumulonimbus

METAR: UNNT 281700Z 18002MPS CAVOK 18/14 Q1013 R07/090070 R16/090070 NOSIG RMK QFE749/0999

Hora: 00:26 (17:26 UTC)

Previsão

O boletim foi feito há 3 horas e 26 minutos, às 14:00 UTC
Previsão válida de 28 às 15 UTC a 29 às 15 UTC
Vento 2 kt com direcção variável
Visibilidade 10 km ou mais
sem nuvens abaixo de 1500 metros e sem cumulonimbus
Temporariamente
de 28 às 15 UTC a 29 às 02 UTC
Visibilidade: 1500 m
Nuvens dispersasa uma altura de 500 ft
neblina

TAF: UNNT 281400Z 2815/2915 VRB01MPS CAVOK TEMPO 2815/2902 1500 BR SCT005

Observações e previsões do tempo de mais de 4000 aeroportos (mensagens METAR e TAF).

As estações disponíveis são os pontos amarelos e vermelhos sobre o mapa.

Mova o rato sobre o mapa para ver o nome da estação.

Depois clique no ponto para visualizar as observações e previsões meteorológicas.

Para alterar o mapa : clique nos botões verdes com uma cruz preta para aumentar o zoom; no botão verde com uma pitada de zoom; ou nas setas verdes para mapas adjacentes.


METAR-TAF: